Time;durP1;ratioP1;P1;durP2;ratioP2;P2;SDS_P1;SDS_P2;PMS_P1;PMS_P2;Temp;Humidity;BMP_temperature;BMP_pressure;BME280_temperature;BME280_humidity;BME280_pressure;Samples;Min_cycle;Max_cycle;Signal;HPM_P1;HPM_P2
2022/02/24 00:00:06;;;;;;;11.67;3.03;;;;;;;-145.14;100.00;70583.66;4997108;28;20249;-71
2022/02/24 00:02:32;;;;;;;16.37;2.83;;;;;;;-145.14;100.00;70583.66;4997482;28;20217;-72
2022/02/24 00:04:58;;;;;;;11.53;3.00;;;;;;;-145.14;100.00;70583.66;5000937;28;20546;-71
2022/02/24 00:07:23;;;;;;;9.97;2.73;;;;;;;-145.14;100.00;70583.66;4997403;28;20597;-71
2022/02/24 00:09:48;;;;;;;11.20;2.67;;;;;;;-145.14;100.00;70583.66;4997594;28;20219;-71
2022/02/24 00:12:14;;;;;;;9.50;3.87;;;;;;;-145.14;100.00;70583.66;4997528;28;20685;-72
2022/02/24 00:14:39;;;;;;;11.87;3.10;;;;;;;-145.14;100.00;70583.66;5013435;28;20223;-71
2022/02/24 00:17:07;;;;;;;12.27;3.00;;;;;;;-145.14;100.00;70583.66;5000309;28;20192;-71
2022/02/24 00:19:32;;;;;;;17.20;3.83;;;;;;;-145.14;100.00;70583.66;5000093;28;20180;-71
2022/02/24 00:21:57;;;;;;;15.33;3.60;;;;;;;-145.14;100.00;70583.66;5001166;28;20443;-71
2022/02/24 00:24:23;;;;;;;15.30;2.90;;;;;;;-145.14;100.00;70583.66;4998941;28;20563;-71
2022/02/24 00:26:48;;;;;;;12.20;3.30;;;;;;;-145.14;100.00;70583.66;4996196;28;20402;-71
2022/02/24 00:29:13;;;;;;;13.70;2.83;;;;;;;-145.14;100.00;70583.66;4998243;28;20677;-71
2022/02/24 00:31:39;;;;;;;10.77;3.33;;;;;;;-145.14;100.00;70583.66;5001293;28;20243;-72
2022/02/24 00:34:04;;;;;;;9.80;3.23;;;;;;;-145.14;100.00;70583.66;5003329;28;20715;-71
2022/02/24 00:36:29;;;;;;;15.20;4.30;;;;;;;-145.14;100.00;70583.66;4998220;28;20725;-71
2022/02/24 00:38:55;;;;;;;10.80;3.23;;;;;;;-145.14;100.00;70583.66;4996629;28;20686;-72
2022/02/24 00:41:20;;;;;;;10.80;3.10;;;;;;;-145.14;100.00;70583.66;4999404;28;20193;-72
2022/02/24 00:43:45;;;;;;;11.13;3.33;;;;;;;-145.14;100.00;70583.66;4995606;28;20649;-71
2022/02/24 00:46:11;;;;;;;13.00;2.87;;;;;;;-145.14;100.00;70583.66;4996109;28;20745;-71
2022/02/24 00:48:36;;;;;;;12.93;3.60;;;;;;;-145.14;100.00;70583.66;4997375;28;20202;-72
2022/02/24 00:51:02;;;;;;;20.00;3.40;;;;;;;-145.14;100.00;70583.66;4992007;28;20259;-71
2022/02/24 00:53:28;;;;;;;15.07;3.83;;;;;;;-145.14;100.00;70583.66;4996991;28;20255;-71
2022/02/24 00:55:53;;;;;;;9.03;2.77;;;;;;;-145.14;100.00;70583.66;4990581;28;20850;-71
2022/02/24 00:58:18;;;;;;;10.23;2.73;;;;;;;-145.14;100.00;70583.66;5000709;28;20197;-71
2022/02/24 01:00:44;;;;;;;7.83;2.80;;;;;;;-145.14;100.00;70583.66;5004002;28;20268;-71
2022/02/24 01:03:09;;;;;;;13.00;3.37;;;;;;;-145.14;100.00;70583.66;4999765;28;20201;-71
2022/02/24 01:05:34;;;;;;;11.70;3.00;;;;;;;-145.14;100.00;70583.66;5000074;28;20323;-71
2022/02/24 01:08:00;;;;;;;7.37;2.60;;;;;;;-145.14;100.00;70583.66;4999527;28;20235;-71
2022/02/24 01:10:25;;;;;;;11.50;3.30;;;;;;;-145.14;100.00;70583.66;5000881;28;20212;-71
2022/02/24 01:12:51;;;;;;;18.00;3.40;;;;;;;-145.14;100.00;70583.66;5000436;28;20181;-71
2022/02/24 01:15:16;;;;;;;13.97;3.20;;;;;;;-145.14;100.00;70583.66;4999963;28;20208;-71
2022/02/24 01:17:43;;;;;;;13.07;2.80;;;;;;;-145.14;100.00;70583.66;4999540;28;20199;-71
2022/02/24 01:20:09;;;;;;;13.97;3.07;;;;;;;-145.14;100.00;70583.66;5004023;28;20188;-71
2022/02/24 01:22:34;;;;;;;11.70;3.20;;;;;;;-145.14;100.00;70583.66;5000469;28;20447;-71
2022/02/24 01:25:00;;;;;;;13.13;2.77;;;;;;;-145.14;100.00;70583.66;5001371;28;20209;-71
2022/02/24 01:27:26;;;;;;;8.40;2.37;;;;;;;-145.14;100.00;70583.66;5002662;28;20280;-71
2022/02/24 01:29:51;;;;;;;8.73;3.17;;;;;;;-145.14;100.00;70583.66;4998501;28;20794;-71
2022/02/24 01:32:17;;;;;;;15.37;3.63;;;;;;;-145.14;100.00;70583.66;4999094;28;20267;-71
2022/02/24 01:34:42;;;;;;;14.87;3.57;;;;;;;-145.14;100.00;70583.66;4998596;28;20303;-71
2022/02/24 01:37:08;;;;;;;13.43;3.60;;;;;;;-145.14;100.00;70583.66;4999589;28;20177;-71
2022/02/24 01:39:33;;;;;;;13.97;2.90;;;;;;;-145.14;100.00;70583.66;5000300;28;20263;-71
2022/02/24 01:41:59;;;;;;;16.97;4.07;;;;;;;-145.14;100.00;70583.66;4997988;28;20295;-70
2022/02/24 01:44:24;;;;;;;12.47;3.30;;;;;;;-145.14;100.00;70583.66;5003632;28;20220;-71
2022/02/24 01:46:51;;;;;;;11.87;3.30;;;;;;;-145.14;100.00;70583.66;5001844;28;20633;-71
2022/02/24 01:49:20;;;;;;;11.37;2.80;;;;;;;-145.14;100.00;70583.66;5000881;28;20205;-71
2022/02/24 01:51:46;;;;;;;9.83;3.40;;;;;;;-145.14;100.00;70583.66;5001523;28;20435;-71
2022/02/24 01:54:12;;;;;;;10.17;3.00;;;;;;;-145.14;100.00;70583.66;4997321;28;20462;-70
2022/02/24 01:56:37;;;;;;;12.73;2.90;;;;;;;-145.14;100.00;70583.66;5000078;28;20448;-71
2022/02/24 01:59:03;;;;;;;12.40;2.80;;;;;;;-145.14;100.00;70583.66;5000335;28;20177;-71
2022/02/24 02:01:29;;;;;;;13.67;3.17;;;;;;;-145.14;100.00;70583.66;4996105;28;20196;-71
2022/02/24 02:03:55;;;;;;;13.00;3.33;;;;;;;-145.14;100.00;70583.66;4997625;28;20287;-71
2022/02/24 02:06:23;;;;;;;12.03;2.97;;;;;;;-145.14;100.00;70583.66;4993872;28;20463;-71
2022/02/24 02:08:49;;;;;;;15.07;3.33;;;;;;;-145.14;100.00;70583.66;5000079;28;20332;-71
2022/02/24 02:11:16;;;;;;;8.40;2.70;;;;;;;-145.14;100.00;70583.66;4997022;28;21001;-71
2022/02/24 02:13:41;;;;;;;10.77;2.77;;;;;;;-145.14;100.00;70583.66;5000556;28;20810;-71
2022/02/24 02:16:10;;;;;;;11.20;2.80;;;;;;;-145.14;100.00;70583.66;4997594;28;20471;-71
2022/02/24 02:18:38;;;;;;;5.60;2.13;;;;;;;-145.14;100.00;70583.66;4998172;28;20355;-72
2022/02/24 02:21:03;;;;;;;7.93;2.77;;;;;;;-145.14;100.00;70583.66;5002721;28;20837;-71
2022/02/24 02:23:28;;;;;;;10.90;2.83;;;;;;;-145.14;100.00;70583.66;4997655;28;20444;-71
2022/02/24 02:25:54;;;;;;;8.67;2.53;;;;;;;-145.14;100.00;70583.66;4998863;28;20241;-71
2022/02/24 02:28:19;;;;;;;9.43;2.33;;;;;;;-145.14;100.00;70583.66;4999870;28;20197;-71
2022/02/24 02:30:45;;;;;;;10.27;2.60;;;;;;;-145.14;100.00;70583.66;4996524;28;20220;-72
2022/02/24 02:33:11;;;;;;;10.23;3.00;;;;;;;-145.14;100.00;70583.66;4999706;28;20650;-71
2022/02/24 02:35:37;;;;;;;16.50;3.17;;;;;;;-145.14;100.00;70583.66;5005126;23;20332;-76
2022/02/24 02:38:04;;;;;;;11.53;2.93;;;;;;;-145.14;100.00;70583.66;4999759;28;20204;-76
2022/02/24 02:40:30;;;;;;;8.60;2.60;;;;;;;-145.14;100.00;70583.66;4999270;28;20439;-76
2022/02/24 02:42:55;;;;;;;8.03;3.30;;;;;;;-145.14;100.00;70583.66;4998091;28;20432;-76
2022/02/24 02:45:21;;;;;;;7.70;2.70;;;;;;;-145.14;100.00;70583.66;4997012;28;20307;-76
2022/02/24 02:47:47;;;;;;;8.37;2.70;;;;;;;-145.14;100.00;70583.66;4999157;28;20197;-76
2022/02/24 02:50:13;;;;;;;13.60;2.67;;;;;;;-145.14;100.00;70583.66;4999593;28;20247;-76
2022/02/24 02:52:39;;;;;;;14.63;2.50;;;;;;;-145.14;100.00;70583.66;4999697;28;20202;-76
2022/02/24 02:55:09;;;;;;;7.43;2.27;;;;;;;-145.14;100.00;70583.66;4995518;28;20883;-76
2022/02/24 02:57:36;;;;;;;11.13;2.23;;;;;;;-145.14;100.00;70583.66;4996354;28;20216;-76
2022/02/24 03:00:05;;;;;;;13.60;2.50;;;;;;;-145.14;100.00;70583.66;4997513;28;20471;-76
2022/02/24 03:02:31;;;;;;;8.30;2.30;;;;;;;-145.14;100.00;70583.66;4999065;28;20917;-76
2022/02/24 03:04:56;;;;;;;9.73;2.80;;;;;;;-145.14;100.00;70583.66;4999974;28;20467;-76
2022/02/24 03:07:22;;;;;;;8.80;2.40;;;;;;;-145.14;100.00;70583.66;4997386;28;20207;-76
2022/02/24 03:09:49;;;;;;;7.93;2.43;;;;;;;-145.14;100.00;70583.66;4995006;28;20197;-76
2022/02/24 03:12:14;;;;;;;7.67;1.77;;;;;;;-145.14;100.00;70583.66;5000003;28;20190;-76
2022/02/24 03:14:40;;;;;;;8.87;2.53;;;;;;;-145.14;100.00;70583.66;4996892;28;20813;-76
2022/02/24 03:17:06;;;;;;;8.30;2.27;;;;;;;-145.14;100.00;70583.66;4998662;28;20642;-76
2022/02/24 03:19:32;;;;;;;4.80;2.00;;;;;;;-145.14;100.00;70583.66;5002779;28;20450;-75
2022/02/24 03:21:57;;;;;;;7.10;2.20;;;;;;;-145.14;100.00;70583.66;4998122;28;20448;-76
2022/02/24 03:24:23;;;;;;;6.63;2.17;;;;;;;-145.14;100.00;70583.66;4999666;28;20198;-76
2022/02/24 03:26:49;;;;;;;9.90;2.43;;;;;;;-145.14;100.00;70583.66;4996530;28;20185;-76
2022/02/24 03:29:15;;;;;;;13.40;2.40;;;;;;;-145.14;100.00;70583.66;4996098;28;20287;-76
2022/02/24 03:31:41;;;;;;;12.90;2.40;;;;;;;-145.14;100.00;70583.66;4999256;28;20440;-76
2022/02/24 03:34:07;;;;;;;5.73;1.70;;;;;;;-145.14;100.00;70583.66;4999440;28;20424;-76
2022/02/24 03:36:33;;;;;;;5.60;2.43;;;;;;;-145.14;100.00;70583.66;4999558;28;20494;-75
2022/02/24 03:38:58;;;;;;;9.43;2.47;;;;;;;-145.14;100.00;70583.66;4995696;28;20173;-76
2022/02/24 03:41:24;;;;;;;8.83;2.03;;;;;;;-145.14;100.00;70583.66;4999118;28;20519;-76
2022/02/24 03:43:50;;;;;;;5.47;2.10;;;;;;;-145.14;100.00;70583.66;4998246;28;20599;-76
2022/02/24 03:46:16;;;;;;;7.97;1.83;;;;;;;-145.14;100.00;70583.66;4999627;28;20216;-76
2022/02/24 03:48:42;;;;;;;8.00;2.57;;;;;;;-145.14;100.00;70583.66;5001053;28;20558;-75
2022/02/24 03:51:07;;;;;;;11.23;2.37;;;;;;;-145.14;100.00;70583.66;5002271;28;20181;-75
2022/02/24 03:53:33;;;;;;;11.63;3.00;;;;;;;-145.14;100.00;70583.66;5002822;28;20200;-75
2022/02/24 03:55:58;;;;;;;13.17;2.30;;;;;;;-145.14;100.00;70583.66;5003688;28;20211;-75
2022/02/24 03:58:24;;;;;;;9.47;2.17;;;;;;;-145.14;100.00;70583.66;4995509;28;20239;-76
2022/02/24 04:00:49;;;;;;;10.67;2.63;;;;;;;-145.14;100.00;70583.66;5003454;28;20272;-75
2022/02/24 04:03:14;;;;;;;6.57;1.80;;;;;;;-145.14;100.00;70583.66;4999976;28;20606;-76
2022/02/24 04:05:40;;;;;;;9.37;2.30;;;;;;;-145.14;100.00;70583.66;4999739;28;20247;-76
2022/02/24 04:08:06;;;;;;;7.80;2.43;;;;;;;-145.14;100.00;70583.66;5002478;28;20205;-76
2022/02/24 04:10:31;;;;;;;7.20;2.20;;;;;;;-145.14;100.00;70583.66;5001954;28;20205;-76
2022/02/24 04:12:57;;;;;;;7.10;2.13;;;;;;;-145.14;100.00;70583.66;5003063;28;20185;-76
2022/02/24 04:15:23;;;;;;;8.67;2.40;;;;;;;-145.14;100.00;70583.66;4999837;28;20217;-76
2022/02/24 04:17:48;;;;;;;14.93;2.97;;;;;;;-145.14;100.00;70583.66;5000888;28;20232;-76
2022/02/24 04:20:13;;;;;;;8.77;2.63;;;;;;;-145.14;100.00;70583.66;5004239;28;20803;-76
2022/02/24 04:22:39;;;;;;;9.03;2.10;;;;;;;-145.14;100.00;70583.66;5004399;28;20185;-76
2022/02/24 04:25:04;;;;;;;15.73;2.80;;;;;;;-145.14;100.00;70583.66;5001282;28;20204;-76
2022/02/24 04:27:30;;;;;;;9.60;2.50;;;;;;;-145.14;100.00;70583.66;5005964;28;20609;-76
2022/02/24 04:29:55;;;;;;;8.37;2.50;;;;;;;-145.14;100.00;70583.66;5001810;28;20201;-76
2022/02/24 04:32:21;;;;;;;7.70;3.07;;;;;;;-145.14;100.00;70583.66;5001716;28;20201;-76
2022/02/24 04:34:46;;;;;;;13.63;2.67;;;;;;;-145.14;100.00;70583.66;4997027;28;20232;-76
2022/02/24 04:37:11;;;;;;;13.83;2.73;;;;;;;-145.14;100.00;70583.66;5004766;28;20182;-76
2022/02/24 04:39:37;;;;;;;16.43;2.37;;;;;;;-145.14;100.00;70583.66;5003323;28;20642;-76
2022/02/24 04:42:02;;;;;;;12.17;2.23;;;;;;;-145.14;100.00;70583.66;5005077;28;20244;-75
2022/02/24 04:44:28;;;;;;;8.10;1.70;;;;;;;-145.14;100.00;70583.66;5003997;28;20200;-76
2022/02/24 04:46:53;;;;;;;10.83;2.17;;;;;;;-145.14;100.00;70583.66;5003466;28;20231;-75
2022/02/24 04:49:19;;;;;;;8.07;2.37;;;;;;;-145.14;100.00;70583.66;4999191;28;20634;-76
2022/02/24 04:51:44;;;;;;;10.20;2.77;;;;;;;-145.14;100.00;70583.66;5005081;28;20197;-76
2022/02/24 04:54:09;;;;;;;8.10;2.20;;;;;;;-145.14;100.00;70583.66;5004791;28;20622;-75
2022/02/24 04:56:35;;;;;;;9.13;2.50;;;;;;;-145.14;100.00;70583.66;5000676;28;20244;-76
2022/02/24 04:59:00;;;;;;;12.73;2.43;;;;;;;-145.14;100.00;70583.66;5001207;28;20184;-75
2022/02/24 05:01:28;;;;;;;9.00;2.30;;;;;;;-145.14;100.00;70583.66;5010492;28;20271;-75
2022/02/24 05:03:54;;;;;;;17.53;2.60;;;;;;;-145.14;100.00;70583.66;5001966;28;20191;-75
2022/02/24 05:06:19;;;;;;;15.30;2.50;;;;;;;-145.14;100.00;70583.66;4996558;28;20455;-75
2022/02/24 05:08:45;;;;;;;5.13;1.87;;;;;;;-145.14;100.00;70583.66;5000375;28;20669;-75
2022/02/24 05:11:10;;;;;;;10.10;2.17;;;;;;;-145.14;100.00;70583.66;5002465;28;20579;-73
2022/02/24 05:13:35;;;;;;;6.33;1.97;;;;;;;-145.14;100.00;70583.66;4998688;28;20216;-74
2022/02/24 05:16:01;;;;;;;11.03;2.10;;;;;;;-145.14;100.00;70583.66;5004027;28;20681;-75
2022/02/24 05:18:26;;;;;;;8.20;2.67;;;;;;;-145.14;100.00;70583.66;5004136;28;20193;-74
2022/02/24 05:20:52;;;;;;;11.40;2.57;;;;;;;-145.14;100.00;70583.66;5001220;28;20192;-74
2022/02/24 05:23:17;;;;;;;8.10;2.70;;;;;;;-145.14;100.00;70583.66;5003567;28;20189;-74
2022/02/24 05:25:43;;;;;;;8.60;2.27;;;;;;;-145.14;100.00;70583.66;5005302;28;20610;-74
2022/02/24 05:28:10;;;;;;;9.73;2.70;;;;;;;-145.14;100.00;70583.66;5002260;28;20373;-74
2022/02/24 05:30:37;;;;;;;8.53;2.17;;;;;;;-145.14;100.00;70583.66;5001911;28;20232;-74
2022/02/24 05:33:02;;;;;;;13.83;2.33;;;;;;;-145.14;100.00;70583.66;5002422;28;20544;-74
2022/02/24 05:35:28;;;;;;;7.30;2.40;;;;;;;-145.14;100.00;70583.66;5003021;28;20609;-75
2022/02/24 05:37:54;;;;;;;7.67;2.30;;;;;;;-145.14;100.00;70583.66;5004193;28;20439;-75
2022/02/24 05:40:19;;;;;;;12.30;2.40;;;;;;;-145.14;100.00;70583.66;4999741;28;20196;-75
2022/02/24 05:42:45;;;;;;;10.23;2.40;;;;;;;-145.14;100.00;70583.66;5001053;28;20657;-75
2022/02/24 05:45:11;;;;;;;8.60;2.47;;;;;;;-145.14;100.00;70583.66;5000262;28;20554;-76
2022/02/24 05:47:36;;;;;;;7.87;1.70;;;;;;;-145.14;100.00;70583.66;5000912;28;20195;-76
2022/02/24 05:50:07;;;;;;;12.47;2.87;;;;;;;-145.14;100.00;70583.66;4996966;28;20271;-75
2022/02/24 05:52:36;;;;;;;9.47;2.17;;;;;;;-145.14;100.00;70583.66;5001449;28;20545;-75
2022/02/24 05:55:03;;;;;;;8.10;2.33;;;;;;;-145.14;100.00;70583.66;5000459;28;20464;-75
2022/02/24 05:57:29;;;;;;;11.90;2.80;;;;;;;-145.14;100.00;70583.66;5000224;28;20447;-76
2022/02/24 05:59:54;;;;;;;7.10;2.57;;;;;;;-145.14;100.00;70583.66;5000590;28;20439;-75
2022/02/24 06:02:20;;;;;;;8.40;1.97;;;;;;;-145.14;100.00;70583.66;4999550;28;20909;-75
2022/02/24 06:04:45;;;;;;;4.27;1.87;;;;;;;-145.14;100.00;70583.66;4999247;28;20201;-76
2022/02/24 06:07:10;;;;;;;10.70;3.60;;;;;;;-145.14;100.00;70583.66;4999404;28;20236;-75
2022/02/24 06:09:36;;;;;;;8.90;2.50;;;;;;;-145.14;100.00;70583.66;4989838;28;20220;-76
2022/02/24 06:12:02;;;;;;;9.30;2.83;;;;;;;-145.14;100.00;70583.66;4989752;28;20281;-75
2022/02/24 06:14:28;;;;;;;11.27;2.50;;;;;;;-145.14;100.00;70583.66;4982840;28;20215;-76
2022/02/24 06:16:53;;;;;;;13.73;2.27;;;;;;;-145.14;100.00;70583.66;4995255;28;20472;-76
2022/02/24 06:19:19;;;;;;;6.90;2.47;;;;;;;-145.14;100.00;70583.66;4993692;28;20181;-75
2022/02/24 06:21:44;;;;;;;9.90;2.70;;;;;;;-145.14;100.00;70583.66;4992888;28;20184;-75
2022/02/24 06:24:10;;;;;;;10.10;2.93;;;;;;;-145.14;100.00;70583.66;4989796;28;20248;-76
2022/02/24 06:26:35;;;;;;;8.03;2.17;;;;;;;-145.14;100.00;70583.66;4996924;28;20208;-76
2022/02/24 06:29:00;;;;;;;11.80;3.00;;;;;;;-145.14;100.00;70583.66;4986259;28;21482;-75
2022/02/24 06:31:26;;;;;;;10.60;2.70;;;;;;;-145.14;100.00;70583.66;5000192;28;20185;-75
2022/02/24 06:33:51;;;;;;;10.13;2.43;;;;;;;-145.14;100.00;70583.66;5000242;28;20181;-76
2022/02/24 06:36:17;;;;;;;6.60;2.10;;;;;;;-145.14;100.00;70583.66;4998659;28;20217;-76
2022/02/24 06:38:42;;;;;;;11.00;2.53;;;;;;;-145.14;100.00;70583.66;5000928;28;20181;-75
2022/02/24 06:41:08;;;;;;;8.83;2.90;;;;;;;-145.14;100.00;70583.66;5000569;28;20201;-75
2022/02/24 06:43:33;;;;;;;10.43;2.67;;;;;;;-145.14;100.00;70583.66;5001063;28;20192;-75
2022/02/24 06:45:59;;;;;;;7.10;2.63;;;;;;;-145.14;100.00;70583.66;4995283;28;20306;-75
2022/02/24 06:48:25;;;;;;;8.03;3.00;;;;;;;-145.14;100.00;70583.66;4997346;28;20943;-75
2022/02/24 06:50:51;;;;;;;6.30;2.43;;;;;;;-145.14;100.00;70583.66;4992173;28;20263;-75
2022/02/24 06:53:17;;;;;;;12.50;2.90;;;;;;;-145.14;100.00;70583.66;4997420;28;20945;-75
2022/02/24 06:55:43;;;;;;;9.27;2.30;;;;;;;-145.14;100.00;70583.66;4995900;28;20737;-75
2022/02/24 06:58:08;;;;;;;12.40;3.57;;;;;;;-145.14;100.00;70583.66;4995419;28;20535;-75
2022/02/24 07:00:33;;;;;;;6.77;2.80;;;;;;;-145.14;100.00;70583.66;4997316;28;20403;-76
2022/02/24 07:02:59;;;;;;;7.00;2.30;;;;;;;-145.14;100.00;70583.66;4996119;28;20185;-75
2022/02/24 07:05:25;;;;;;;15.83;3.10;;;;;;;-145.14;100.00;70583.66;4994558;28;20774;-75
2022/02/24 07:07:50;;;;;;;13.00;2.60;;;;;;;-145.14;100.00;70583.66;4996105;28;20188;-75
2022/02/24 07:10:16;;;;;;;8.53;2.77;;;;;;;-145.14;100.00;70583.66;4993651;28;20478;-75
2022/02/24 07:12:43;;;;;;;11.50;2.80;;;;;;;-145.14;100.00;70583.66;4995043;28;20256;-75
2022/02/24 07:15:10;;;;;;;10.53;2.87;;;;;;;-145.14;100.00;70583.66;4993745;28;20236;-76
2022/02/24 07:17:40;;;;;;;7.27;3.00;;;;;;;-145.14;100.00;70583.66;4997578;28;20444;-75
2022/02/24 07:20:06;;;;;;;9.63;2.57;;;;;;;-145.14;100.00;70583.66;4995154;28;20541;-75
2022/02/24 07:22:31;;;;;;;10.77;2.70;;;;;;;-145.14;100.00;70583.66;4992395;28;20436;-76
2022/02/24 07:24:57;;;;;;;6.33;2.60;;;;;;;-145.14;100.00;70583.66;4996190;28;20720;-76
2022/02/24 07:27:22;;;;;;;8.53;2.60;;;;;;;-145.14;100.00;70583.66;4978760;28;20228;-75
2022/02/24 07:29:48;;;;;;;8.90;2.50;;;;;;;-145.14;100.00;70583.66;4994445;28;20217;-77
2022/02/24 07:32:13;;;;;;;12.87;3.03;;;;;;;-145.14;100.00;70583.66;4991426;28;20192;-76
2022/02/24 07:34:39;;;;;;;12.70;2.47;;;;;;;-145.14;100.00;70583.66;4996839;28;20219;-76
2022/02/24 07:37:04;;;;;;;9.30;3.10;;;;;;;-145.14;100.00;70583.66;4995507;28;20196;-79
2022/02/24 07:39:30;;;;;;;15.07;4.07;;;;;;;-145.14;100.00;70583.66;4996076;28;20204;-78
2022/02/24 07:41:55;;;;;;;13.77;3.33;;;;;;;-145.14;100.00;70583.66;4990746;28;20196;-78
2022/02/24 07:44:21;;;;;;;12.70;3.97;;;;;;;-145.14;100.00;70583.66;4997938;28;20251;-77
2022/02/24 07:46:46;;;;;;;10.83;2.60;;;;;;;-145.14;100.00;70583.66;4993373;28;20696;-77
2022/02/24 07:49:12;;;;;;;11.77;3.10;;;;;;;-145.14;100.00;70583.66;4991092;28;20208;-77
2022/02/24 07:51:37;;;;;;;8.10;3.00;;;;;;;-145.14;100.00;70583.66;4988320;28;20587;-76
2022/02/24 07:54:02;;;;;;;11.60;3.03;;;;;;;-145.14;100.00;70583.66;4993690;28;20189;-77
2022/02/24 07:56:29;;;;;;;16.30;4.03;;;;;;;-145.14;100.00;70583.66;4994638;28;20440;-77
2022/02/24 07:58:55;;;;;;;12.37;3.43;;;;;;;-145.14;100.00;70583.66;4991081;28;20263;-77
2022/02/24 08:01:23;;;;;;;15.50;2.90;;;;;;;-145.14;100.00;70583.66;4997587;28;20444;-77
2022/02/24 08:03:50;;;;;;;11.40;3.10;;;;;;;-145.14;100.00;70583.66;4991460;28;20181;-76
2022/02/24 08:06:16;;;;;;;11.60;2.90;;;;;;;-145.14;100.00;70583.66;4987097;28;20463;-77
2022/02/24 08:08:41;;;;;;;10.93;3.00;;;;;;;-145.14;100.00;70583.66;5000476;28;20939;-78
2022/02/24 08:11:07;;;;;;;9.07;2.77;;;;;;;-145.14;100.00;70583.66;5000567;28;20451;-78
2022/02/24 08:13:32;;;;;;;14.50;2.80;;;;;;;-145.14;100.00;70583.66;4989926;28;20207;-78
2022/02/24 08:15:58;;;;;;;8.57;2.97;;;;;;;-145.14;100.00;70583.66;4996284;28;20208;-77
2022/02/24 08:18:23;;;;;;;11.47;3.13;;;;;;;-145.14;100.00;70583.66;4992366;28;20195;-78
2022/02/24 08:20:48;;;;;;;15.13;3.47;;;;;;;-145.14;100.00;70583.66;5001335;28;20242;-78
2022/02/24 08:23:15;;;;;;;12.70;2.97;;;;;;;-145.14;100.00;70583.66;4999874;28;21506;-78
2022/02/24 08:25:40;;;;;;;10.07;3.20;;;;;;;-145.14;100.00;70583.66;4991335;28;20578;-76
2022/02/24 08:28:06;;;;;;;15.90;3.27;;;;;;;-145.14;100.00;70583.66;4995999;28;20443;-76
2022/02/24 08:30:32;;;;;;;11.07;2.80;;;;;;;-145.14;100.00;70583.66;4992456;28;20245;-76
2022/02/24 08:32:57;;;;;;;8.93;2.20;;;;;;;-145.14;100.00;70583.66;4993901;28;20276;-76
2022/02/24 08:35:25;;;;;;;10.97;2.83;;;;;;;-145.14;100.00;70583.66;5009357;23;21297;-73
2022/02/24 08:37:51;;;;;;;9.80;2.93;;;;;;;-145.14;100.00;70583.66;4993698;28;20239;-72
2022/02/24 08:40:20;;;;;;;7.40;2.33;;;;;;;-145.14;100.00;70583.66;4997730;28;21018;-70
2022/02/24 08:42:46;;;;;;;12.57;2.97;;;;;;;-145.14;100.00;70583.66;4994732;28;21162;-70
2022/02/24 08:45:12;;;;;;;7.03;2.20;;;;;;;-145.14;100.00;70583.66;4996571;28;21066;-70
2022/02/24 08:47:39;;;;;;;12.60;3.17;;;;;;;-145.14;100.00;70583.66;4992478;28;20455;-71
2022/02/24 08:50:05;;;;;;;12.20;3.43;;;;;;;-145.14;100.00;70583.66;4991628;28;20597;-71
2022/02/24 08:52:31;;;;;;;9.37;2.70;;;;;;;-145.14;100.00;70583.66;4996342;28;20454;-71
2022/02/24 08:54:56;;;;;;;8.43;4.10;;;;;;;-145.14;100.00;70583.66;4997489;28;20969;-71
2022/02/24 08:57:22;;;;;;;12.23;3.90;;;;;;;-145.14;100.00;70583.66;4995949;28;20204;-71
2022/02/24 08:59:48;;;;;;;15.97;3.77;;;;;;;-145.14;100.00;70583.66;4996441;28;20181;-71
2022/02/24 09:02:13;;;;;;;8.13;3.17;;;;;;;-145.14;100.00;70583.66;4998543;28;20189;-72
2022/02/24 09:04:39;;;;;;;14.33;2.73;;;;;;;-145.14;100.00;70583.66;4997983;28;20451;-71
2022/02/24 09:07:05;;;;;;;9.87;2.90;;;;;;;-145.14;100.00;70583.66;4991622;28;20236;-71
2022/02/24 09:09:31;;;;;;;8.00;2.87;;;;;;;-145.14;100.00;70583.66;4998685;28;20197;-72
2022/02/24 09:11:56;;;;;;;10.53;3.20;;;;;;;-145.14;100.00;70583.66;4994563;28;20193;-71
2022/02/24 09:14:22;;;;;;;7.87;3.27;;;;;;;-145.14;100.00;70583.66;4996232;28;20587;-72
2022/02/24 09:16:47;;;;;;;10.27;3.43;;;;;;;-145.14;100.00;70583.66;4997563;28;20200;-71
2022/02/24 09:19:13;;;;;;;12.17;3.40;;;;;;;-145.14;100.00;70583.66;4993855;28;20895;-71
2022/02/24 09:21:39;;;;;;;10.30;2.90;;;;;;;-145.14;100.00;70583.66;4993909;28;20189;-71
2022/02/24 09:24:06;;;;;;;11.90;3.47;;;;;;;-145.14;100.00;70583.66;4991568;28;20436;-71
2022/02/24 09:26:33;;;;;;;6.87;3.13;;;;;;;-145.14;100.00;70583.66;4998990;28;20814;-71
2022/02/24 09:28:59;;;;;;;13.67;4.13;;;;;;;-145.14;100.00;70583.66;4994875;28;20502;-71
2022/02/24 09:31:24;;;;;;;11.23;3.27;;;;;;;-145.14;100.00;70583.66;4999269;28;22064;-71
2022/02/24 09:33:50;;;;;;;13.77;3.50;;;;;;;-145.14;100.00;70583.66;4996597;28;20940;-71
2022/02/24 09:36:15;;;;;;;9.03;3.47;;;;;;;-145.14;100.00;70583.66;4990916;28;20707;-71
2022/02/24 09:38:41;;;;;;;15.83;3.90;;;;;;;-145.14;100.00;70583.66;4997671;28;20547;-71
2022/02/24 09:41:08;;;;;;;9.97;3.77;;;;;;;-145.14;100.00;70583.66;4997020;28;20252;-71
2022/02/24 09:43:36;;;;;;;11.50;3.87;;;;;;;-145.14;100.00;70583.66;4992858;28;20682;-71
2022/02/24 09:46:07;;;;;;;21.60;4.20;;;;;;;-145.14;100.00;70583.66;5000181;28;20452;-71
2022/02/24 09:48:36;;;;;;;13.73;3.70;;;;;;;-145.14;100.00;70583.66;4996801;28;20456;-71
2022/02/24 09:51:07;;;;;;;10.10;3.63;;;;;;;-145.14;100.00;70583.66;4996390;28;20886;-71
2022/02/24 09:53:34;;;;;;;8.60;3.23;;;;;;;-145.14;100.00;70583.66;4997376;28;20922;-71
2022/02/24 09:56:01;;;;;;;10.50;3.00;;;;;;;-145.14;100.00;70583.66;4989247;28;20491;-71
2022/02/24 09:58:27;;;;;;;11.30;3.77;;;;;;;-145.14;100.00;70583.66;4992256;28;20952;-71
2022/02/24 10:00:54;;;;;;;13.73;3.33;;;;;;;-145.14;100.00;70583.66;4993334;28;20454;-70
2022/02/24 10:03:27;;;;;;;14.50;3.40;;;;;;;-145.14;100.00;70583.66;4995304;28;20678;-70
2022/02/24 10:05:53;;;;;;;12.90;3.60;;;;;;;-145.14;100.00;70583.66;4990311;28;20495;-71
2022/02/24 10:08:27;;;;;;;17.53;4.50;;;;;;;-145.14;100.00;70583.66;4989280;28;20468;-71
2022/02/24 10:10:53;;;;;;;8.87;3.60;;;;;;;-145.14;100.00;70583.66;4996357;28;20232;-71
2022/02/24 10:13:18;;;;;;;12.90;3.83;;;;;;;-145.14;100.00;70583.66;4994539;28;20613;-70
2022/02/24 10:15:51;;;;;;;13.93;3.93;;;;;;;-145.14;100.00;70583.66;4994932;28;20209;-70
2022/02/24 10:18:24;;;;;;;10.40;3.10;;;;;;;-145.14;100.00;70583.66;4993565;28;20207;-71
2022/02/24 10:20:52;;;;;;;15.97;3.97;;;;;;;-145.14;100.00;70583.66;4996830;28;20904;-71
2022/02/24 10:23:20;;;;;;;9.67;3.20;;;;;;;-145.14;100.00;70583.66;4995682;28;21027;-71
2022/02/24 10:25:47;;;;;;;16.63;4.20;;;;;;;-145.14;100.00;70583.66;4994414;28;20463;-71
2022/02/24 10:28:31;;;;;;;9.30;4.03;;;;;;;-145.14;100.00;70583.66;4992010;28;20997;-71
2022/02/24 10:30:58;;;;;;;10.47;3.50;;;;;;;-145.14;100.00;70583.66;4990717;28;21244;-71
2022/02/24 10:33:28;;;;;;;11.00;3.50;;;;;;;-145.14;100.00;70583.66;4995109;28;20444;-70
2022/02/24 10:36:08;;;;;;;8.90;3.50;;;;;;;-145.14;100.00;70583.66;4996801;28;20475;-70
2022/02/24 10:38:34;;;;;;;8.97;3.30;;;;;;;-145.14;100.00;70583.66;4995752;28;20439;-71
2022/02/24 10:41:00;;;;;;;16.80;4.30;;;;;;;-145.14;100.00;70583.66;4992046;28;20821;-71
2022/02/24 10:43:29;;;;;;;7.80;2.80;;;;;;;-145.14;100.00;70583.66;4987792;28;20680;-71
2022/02/24 10:46:02;;;;;;;13.30;3.53;;;;;;;-145.14;100.00;70583.66;4992025;28;20463;-71
2022/02/24 10:48:29;;;;;;;11.57;3.80;;;;;;;-145.14;100.00;70583.66;4995074;28;20494;-71
2022/02/24 10:50:57;;;;;;;10.77;2.93;;;;;;;-145.14;100.00;70583.66;4986822;28;20479;-71
2022/02/24 10:53:28;;;;;;;9.27;2.90;;;;;;;-145.14;100.00;70583.66;4987694;28;20455;-71
2022/02/24 10:56:09;;;;;;;10.30;2.93;;;;;;;-145.14;100.00;70583.66;4988878;28;20475;-70
2022/02/24 10:58:41;;;;;;;7.07;3.50;;;;;;;-145.14;100.00;70583.66;4991952;28;20443;-70